Time;durP1;ratioP1;P1;durP2;ratioP2;P2;SDS_P1;SDS_P2;PMS_P1;PMS_P2;Temp;Humidity;BMP_temperature;BMP_pressure;BME280_temperature;BME280_humidity;BME280_pressure;Samples;Min_cycle;Max_cycle;Signal;HPM_P1;HPM_P2
2021/03/29 00:00:06;;;;;;;8.93;3.50;;;;;;;5.89;92.25;97640.91;5006314;28;20213;-73
2021/03/29 00:02:32;;;;;;;8.73;3.40;;;;;;;5.76;93.09;97635.75;5009323;28;20847;-72
2021/03/29 00:04:58;;;;;;;6.27;3.53;;;;;;;5.74;93.44;97642.88;5009650;28;20226;-73
2021/03/29 00:07:25;;;;;;;5.30;3.53;;;;;;;5.67;93.90;97638.19;5007480;28;20213;-73
2021/03/29 00:09:53;;;;;;;6.10;3.40;;;;;;;5.60;94.33;97644.81;5006628;28;20207;-73
2021/03/29 00:12:20;;;;;;;8.00;3.60;;;;;;;5.64;92.30;97635.81;5007905;28;20198;-73
2021/03/29 00:14:47;;;;;;;5.07;3.10;;;;;;;5.50;92.92;97634.19;5009662;28;20240;-73
2021/03/29 00:17:14;;;;;;;8.57;3.50;;;;;;;5.27;94.58;97642.06;5008262;28;20679;-73
2021/03/29 00:19:42;;;;;;;7.33;3.57;;;;;;;5.31;94.94;97640.91;5008587;28;20206;-72
2021/03/29 00:22:08;;;;;;;8.37;3.33;;;;;;;5.32;94.42;97645.19;5002396;28;20230;-72
2021/03/29 00:24:35;;;;;;;6.93;3.57;;;;;;;5.26;94.58;97648.22;5005419;28;20217;-73
2021/03/29 00:27:02;;;;;;;5.57;3.10;;;;;;;5.18;95.08;97642.72;5004866;28;20287;-72
2021/03/29 00:29:29;;;;;;;5.33;3.60;;;;;;;5.19;95.44;97643.56;4999309;28;20246;-73
2021/03/29 00:31:57;;;;;;;9.20;3.30;;;;;;;5.17;96.03;97650.69;5005985;28;20206;-73
2021/03/29 00:34:23;;;;;;;9.13;3.43;;;;;;;5.17;96.27;97641.06;5007924;28;20237;-73
2021/03/29 00:36:52;;;;;;;6.50;3.60;;;;;;;5.23;94.98;97651.06;5006303;28;20207;-72
2021/03/29 00:39:18;;;;;;;5.90;3.10;;;;;;;5.24;94.21;97644.88;5006268;28;20202;-72
2021/03/29 00:41:45;;;;;;;5.57;3.20;;;;;;;5.33;93.27;97649.44;5005925;28;20207;-73
2021/03/29 00:44:11;;;;;;;10.93;3.40;;;;;;;5.27;93.95;97649.06;5005778;28;20230;-73
2021/03/29 00:46:40;;;;;;;7.17;3.40;;;;;;;5.22;94.18;97646.78;5004568;28;20210;-73
2021/03/29 00:49:08;;;;;;;8.33;3.53;;;;;;;5.24;93.69;97646.66;4998015;28;20210;-73
2021/03/29 00:51:36;;;;;;;5.40;3.17;;;;;;;5.33;93.28;97646.00;5005602;28;20699;-73
2021/03/29 00:54:04;;;;;;;8.30;3.47;;;;;;;5.39;92.91;97648.19;5005838;28;20261;-73
2021/03/29 00:56:33;;;;;;;7.17;3.20;;;;;;;5.40;92.96;97652.44;5006872;28;20624;-72
2021/03/29 00:59:00;;;;;;;7.23;3.73;;;;;;;5.38;92.65;97652.56;5008946;28;20206;-73
2021/03/29 01:01:28;;;;;;;6.43;3.43;;;;;;;5.45;91.87;97651.19;5006784;28;20259;-72
2021/03/29 01:03:58;;;;;;;8.87;3.80;;;;;;;5.52;91.42;97641.94;5005394;28;20239;-72
2021/03/29 01:06:28;;;;;;;9.00;4.30;;;;;;;5.66;91.20;97644.38;5006802;28;20210;-73
2021/03/29 01:08:57;;;;;;;10.43;4.00;;;;;;;5.77;90.62;97637.44;5009122;28;20248;-73
2021/03/29 01:11:27;;;;;;;9.40;4.03;;;;;;;5.95;89.71;97636.06;5008219;28;20664;-73
2021/03/29 01:13:58;;;;;;;12.70;4.30;;;;;;;5.97;89.75;97633.31;5005461;28;20257;-73
2021/03/29 01:16:28;;;;;;;7.53;4.30;;;;;;;6.04;90.05;97625.72;5005287;28;20237;-73
2021/03/29 01:18:56;;;;;;;10.63;4.30;;;;;;;6.15;88.75;97628.34;4997716;28;20212;-73
2021/03/29 01:21:47;;;;;;;9.67;4.00;;;;;;;6.25;88.24;97634.56;5007107;28;20210;-73
2021/03/29 01:24:20;;;;;;;7.30;4.37;;;;;;;6.19;88.68;97639.44;5008906;28;20241;-73
2021/03/29 01:26:48;;;;;;;8.87;4.33;;;;;;;6.10;89.55;97633.09;5006794;28;20202;-72
2021/03/29 01:29:17;;;;;;;15.90;4.43;;;;;;;6.11;89.40;97637.41;5007147;28;20264;-73
2021/03/29 01:31:44;;;;;;;7.50;3.70;;;;;;;6.14;89.67;97637.16;5005846;28;20210;-73
2021/03/29 01:34:12;;;;;;;7.93;4.67;;;;;;;6.14;89.69;97637.16;5005003;28;20742;-73
2021/03/29 01:36:41;;;;;;;9.23;4.33;;;;;;;6.17;89.57;97634.31;5007971;28;20202;-73
2021/03/29 01:39:10;;;;;;;9.63;4.40;;;;;;;6.19;88.49;97639.44;5007992;28;20208;-73
2021/03/29 01:41:36;;;;;;;9.07;4.00;;;;;;;6.08;89.79;97644.63;5004638;28;21086;-73
2021/03/29 01:44:04;;;;;;;8.83;3.97;;;;;;;5.94;89.83;97644.84;5005007;28;20240;-73
2021/03/29 01:46:30;;;;;;;11.37;4.57;;;;;;;5.90;90.17;97650.44;5007444;28;20737;-73
2021/03/29 01:48:57;;;;;;;9.90;4.40;;;;;;;5.83;91.57;97651.81;5010784;28;20206;-72
2021/03/29 01:51:24;;;;;;;7.97;4.30;;;;;;;5.64;92.49;97649.72;5007566;28;21091;-73
2021/03/29 01:53:50;;;;;;;7.50;4.60;;;;;;;5.70;92.79;97653.66;5007978;28;20222;-73
2021/03/29 01:56:16;;;;;;;11.83;4.70;;;;;;;5.70;92.75;97648.41;5001830;28;20202;-73
2021/03/29 01:58:43;;;;;;;7.63;4.43;;;;;;;5.70;93.37;97651.03;5007826;28;20202;-72
2021/03/29 02:01:11;;;;;;;9.57;4.57;;;;;;;5.74;92.71;97642.00;5007894;28;20209;-73
2021/03/29 02:03:40;;;;;;;10.53;4.67;;;;;;;5.75;93.02;97641.06;5004235;28;20235;-72
2021/03/29 02:06:07;;;;;;;11.43;4.37;;;;;;;5.78;92.41;97644.34;5004000;28;20203;-73
2021/03/29 02:08:35;;;;;;;13.63;5.20;;;;;;;5.73;91.94;97642.97;5004409;28;20762;-73
2021/03/29 02:11:02;;;;;;;12.07;4.53;;;;;;;5.82;91.99;97648.38;5005021;28;20257;-72
2021/03/29 02:13:32;;;;;;;9.00;4.80;;;;;;;5.81;93.19;97645.88;5007055;28;20223;-73
2021/03/29 02:16:01;;;;;;;8.57;4.80;;;;;;;5.80;92.77;97644.22;5007519;28;20215;-72
2021/03/29 02:18:32;;;;;;;7.77;4.93;;;;;;;5.82;93.12;97642.34;5003405;28;20202;-72
2021/03/29 02:20:59;;;;;;;11.97;4.90;;;;;;;5.82;93.19;97642.34;5003505;28;20224;-72
2021/03/29 02:23:27;;;;;;;10.37;4.53;;;;;;;5.83;92.69;97647.44;5006705;28;20970;-72
2021/03/29 02:25:53;;;;;;;12.03;4.43;;;;;;;5.92;92.37;97646.75;5007700;28;20436;-72
2021/03/29 02:28:20;;;;;;;9.70;4.60;;;;;;;5.91;91.99;97646.88;5009134;28;20781;-73
2021/03/29 02:30:47;;;;;;;9.23;4.73;;;;;;;5.91;92.90;97644.25;5011875;28;20259;-72
2021/03/29 02:33:15;;;;;;;12.33;5.20;;;;;;;5.86;93.31;97641.97;5011629;28;20225;-73
2021/03/29 02:35:43;;;;;;;10.57;5.13;;;;;;;5.86;93.06;97643.75;5007051;28;20217;-73
2021/03/29 02:38:13;;;;;;;10.83;4.80;;;;;;;5.83;92.64;97647.44;5011074;28;20213;-73
2021/03/29 02:40:40;;;;;;;10.80;5.47;;;;;;;5.80;93.84;97642.41;5008102;28;20206;-73
2021/03/29 02:43:07;;;;;;;9.63;4.80;;;;;;;5.71;93.30;97643.06;5012016;28;20715;-72
2021/03/29 02:45:36;;;;;;;11.60;5.30;;;;;;;5.74;93.31;97653.31;5007039;28;20218;-73
2021/03/29 02:48:06;;;;;;;10.00;4.80;;;;;;;5.78;93.47;97649.56;5008144;28;21312;-72
2021/03/29 02:50:34;;;;;;;14.10;5.17;;;;;;;5.83;92.90;97654.44;5011763;28;20275;-72
2021/03/29 02:53:04;;;;;;;9.57;4.73;;;;;;;5.86;93.14;97651.63;5011579;28;20207;-73
2021/03/29 02:55:32;;;;;;;13.53;5.40;;;;;;;5.87;92.97;97655.88;5006668;28;20312;-72
2021/03/29 02:58:00;;;;;;;10.07;4.60;;;;;;;5.24;93.26;97657.94;5007660;28;20210;-73
2021/03/29 03:00:27;;;;;;;7.53;4.93;;;;;;;5.33;94.51;97659.88;5008149;28;20206;-72
2021/03/29 03:02:56;;;;;;;10.47;5.00;;;;;;;5.33;94.58;97667.72;5008033;28;20234;-72
2021/03/29 03:05:25;;;;;;;7.33;4.50;;;;;;;5.18;94.54;97674.09;5007544;28;20291;-73
2021/03/29 03:07:52;;;;;;;9.80;5.03;;;;;;;5.17;94.48;97672.41;5008040;28;20213;-72
2021/03/29 03:10:18;;;;;;;9.30;4.97;;;;;;;5.16;94.68;97672.53;5008633;28;20207;-72
2021/03/29 03:12:46;;;;;;;10.17;4.70;;;;;;;5.12;94.64;97665.84;5011051;28;20202;-72
2021/03/29 03:15:16;;;;;;;8.73;4.40;;;;;;;5.01;93.66;97669.19;5009704;28;20577;-72
2021/03/29 03:17:42;;;;;;;8.37;4.03;;;;;;;5.00;92.93;97671.94;5007765;28;20206;-72
2021/03/29 03:20:10;;;;;;;11.07;4.80;;;;;;;4.92;94.35;97669.84;5007488;28;20217;-73
2021/03/29 03:22:36;;;;;;;7.87;4.33;;;;;;;4.77;94.60;97666.66;5003656;28;20225;-72
2021/03/29 03:25:14;;;;;;;10.00;5.17;;;;;;;4.75;93.60;97673.75;5008986;28;20226;-72
2021/03/29 03:27:44;;;;;;;16.30;5.03;;;;;;;4.69;95.69;97679.44;5007592;28;20219;-72
2021/03/29 03:30:17;;;;;;;9.53;4.60;;;;;;;4.58;96.68;97676.72;5007768;28;20228;-72
2021/03/29 03:32:42;;;;;;;15.90;5.17;;;;;;;4.49;98.38;97677.34;5007030;28;20267;-72
2021/03/29 03:35:10;;;;;;;10.57;4.40;;;;;;;4.47;95.66;97679.25;5006359;28;20333;-72
2021/03/29 03:37:37;;;;;;;7.93;4.70;;;;;;;4.39;96.43;97679.75;5011233;28;21071;-72
2021/03/29 03:40:05;;;;;;;7.77;4.33;;;;;;;4.31;96.18;97678.59;5010309;28;20232;-72
2021/03/29 03:42:32;;;;;;;12.50;5.23;;;;;;;4.33;96.86;97682.78;5006581;28;20233;-72
2021/03/29 03:44:59;;;;;;;10.77;4.97;;;;;;;4.32;98.46;97680.28;5006366;28;20234;-72
2021/03/29 03:47:27;;;;;;;10.67;4.77;;;;;;;4.24;98.26;97693.03;5007894;28;20226;-72
2021/03/29 03:49:53;;;;;;;12.63;5.23;;;;;;;4.23;98.45;97686.94;5008718;28;20206;-72
2021/03/29 03:52:20;;;;;;;8.93;4.33;;;;;;;4.20;97.50;97694.16;5001967;28;20210;-72
2021/03/29 03:54:47;;;;;;;12.47;4.47;;;;;;;4.24;96.86;97691.22;5009297;28;20229;-72
2021/03/29 03:57:13;;;;;;;7.87;5.03;;;;;;;4.23;97.09;97686.13;5007171;28;20369;-72
2021/03/29 03:59:41;;;;;;;11.63;4.97;;;;;;;4.19;97.19;97686.41;5005881;28;20214;-72
2021/03/29 04:02:08;;;;;;;10.37;5.30;;;;;;;4.18;97.49;97692.59;5006293;28;20225;-72
2021/03/29 04:04:34;;;;;;;9.17;4.30;;;;;;;4.15;96.73;97690.19;5005332;28;20313;-72
2021/03/29 04:07:00;;;;;;;10.10;5.03;;;;;;;3.96;97.46;97703.63;5004708;28;21224;-72
2021/03/29 04:09:33;;;;;;;11.20;4.80;;;;;;;3.98;97.27;97706.13;5008349;28;20694;-72
2021/03/29 04:12:04;;;;;;;11.30;4.80;;;;;;;3.98;97.67;97712.16;5008505;28;20693;-72
2021/03/29 04:14:30;;;;;;;9.03;5.20;;;;;;;3.92;98.98;97707.38;5005695;28;20226;-72
2021/03/29 04:16:56;;;;;;;8.30;4.73;;;;;;;3.91;98.38;97710.91;5011262;28;20213;-72
2021/03/29 04:19:23;;;;;;;11.67;4.50;;;;;;;3.88;96.98;97710.28;5005226;28;20293;-72
2021/03/29 04:21:49;;;;;;;12.10;4.60;;;;;;;3.80;97.95;97715.16;5008713;28;20213;-72
2021/03/29 04:24:15;;;;;;;9.90;4.97;;;;;;;3.76;98.80;97714.50;5007467;28;20226;-72
2021/03/29 04:26:42;;;;;;;10.33;5.00;;;;;;;3.85;99.92;97711.31;4999346;28;20301;-72
2021/03/29 04:29:08;;;;;;;11.57;5.37;;;;;;;3.85;99.76;97715.69;5004925;28;20304;-72
2021/03/29 04:31:34;;;;;;;7.30;5.00;;;;;;;3.89;99.20;97711.94;5005137;28;20235;-72
2021/03/29 04:34:00;;;;;;;12.60;5.57;;;;;;;3.86;99.54;97706.94;5005440;28;20944;-72
2021/03/29 04:36:27;;;;;;;8.27;4.37;;;;;;;3.75;97.18;97715.44;5006847;28;20268;-72
2021/03/29 04:38:53;;;;;;;10.03;4.60;;;;;;;3.57;97.25;97721.03;5008750;28;20213;-72
2021/03/29 04:41:19;;;;;;;12.10;5.00;;;;;;;3.66;98.58;97731.69;5006863;28;20212;-72
2021/03/29 04:43:45;;;;;;;13.47;5.23;;;;;;;3.75;99.14;97731.09;4984967;28;568333;-72
2021/03/29 04:46:11;;;;;;;10.00;4.83;;;;;;;3.63;98.54;97731.06;5004938;28;20700;-72
2021/03/29 04:48:37;;;;;;;12.77;5.80;;;;;;;3.56;100.00;97724.56;5009364;28;20685;-72
2021/03/29 04:51:03;;;;;;;11.60;5.83;;;;;;;3.63;100.00;97726.69;5009142;28;20704;-72
2021/03/29 04:53:30;;;;;;;10.30;5.87;;;;;;;3.62;100.00;97723.34;5007928;28;20223;-72
2021/03/29 04:55:56;;;;;;;13.93;5.17;;;;;;;3.63;100.00;97729.28;5005224;28;20203;-72
2021/03/29 04:58:22;;;;;;;13.47;5.10;;;;;;;3.55;100.00;97722.06;5007057;28;20265;-72
2021/03/29 05:00:48;;;;;;;14.23;6.03;;;;;;;3.50;100.00;97730.19;5013520;28;20793;-72
2021/03/29 05:03:14;;;;;;;10.70;5.10;;;;;;;3.58;100.00;97733.13;5001741;28;20230;-72
2021/03/29 05:05:40;;;;;;;11.63;6.23;;;;;;;3.58;100.00;97732.28;5004423;28;20251;-72
2021/03/29 05:08:06;;;;;;;14.07;6.20;;;;;;;3.66;100.00;97726.47;5005325;28;20671;-72
2021/03/29 05:10:35;;;;;;;16.53;7.40;;;;;;;3.68;100.00;97734.22;5005721;28;20599;-72
2021/03/29 05:13:01;;;;;;;16.23;6.57;;;;;;;3.63;100.00;97731.06;5004305;28;20283;-72
2021/03/29 05:15:27;;;;;;;13.60;6.27;;;;;;;3.66;100.00;97731.69;5006528;28;21048;-72
2021/03/29 05:17:53;;;;;;;18.03;6.23;;;;;;;3.71;100.00;97734.81;5008719;28;20214;-72
2021/03/29 05:20:19;;;;;;;12.90;5.57;;;;;;;3.73;100.00;97737.38;5007252;28;20206;-72
2021/03/29 05:22:45;;;;;;;21.73;6.60;;;;;;;3.79;100.00;97740.41;5002305;28;20978;-72
2021/03/29 05:25:12;;;;;;;15.63;6.53;;;;;;;3.91;100.00;97741.38;5007285;28;20321;-72
2021/03/29 05:27:39;;;;;;;14.50;6.23;;;;;;;3.99;100.00;97745.13;5005313;28;20207;-72
2021/03/29 05:30:06;;;;;;;13.60;6.10;;;;;;;3.95;100.00;97746.28;5005071;28;20210;-72
2021/03/29 05:32:32;;;;;;;17.70;5.93;;;;;;;3.94;100.00;97751.59;5008027;28;20205;-72
2021/03/29 05:35:00;;;;;;;20.70;6.63;;;;;;;3.97;100.00;97752.25;5008061;28;20312;-72
2021/03/29 05:37:27;;;;;;;10.77;5.50;;;;;;;4.04;100.00;97753.50;5007362;28;20203;-72
2021/03/29 05:39:55;;;;;;;12.57;6.03;;;;;;;4.11;100.00;97746.97;5008488;28;20201;-72
2021/03/29 05:42:23;;;;;;;15.03;5.83;;;;;;;4.16;100.00;97738.81;5005902;28;20232;-72
2021/03/29 05:44:52;;;;;;;13.30;6.30;;;;;;;4.13;100.00;97747.69;5005015;28;20238;-72
2021/03/29 05:47:18;;;;;;;16.30;5.63;;;;;;;4.27;100.00;97755.41;5005862;28;20214;-72
2021/03/29 05:49:45;;;;;;;13.43;5.73;;;;;;;4.28;100.00;97754.50;5004266;28;20207;-72
2021/03/29 05:52:11;;;;;;;14.43;6.13;;;;;;;4.33;100.00;97749.81;5011976;28;20210;-72
2021/03/29 05:54:38;;;;;;;12.17;6.23;;;;;;;4.46;100.00;97746.25;5003938;28;20245;-72
2021/03/29 05:57:04;;;;;;;12.00;5.47;;;;;;;4.45;100.00;97751.56;5006526;28;20237;-72
2021/03/29 05:59:40;;;;;;;16.40;5.90;;;;;;;4.55;100.00;97761.28;5003720;28;20664;-73
2021/03/29 06:02:07;;;;;;;11.47;5.63;;;;;;;4.57;100.00;97766.41;5004815;28;20202;-72
2021/03/29 06:04:44;;;;;;;12.83;6.00;;;;;;;4.64;100.00;97770.28;5004467;28;20230;-72
2021/03/29 06:07:15;;;;;;;19.87;6.40;;;;;;;4.65;100.00;97771.97;5004156;28;20202;-72
2021/03/29 06:09:42;;;;;;;16.97;7.07;;;;;;;4.82;100.00;97769.03;5008867;28;20209;-72
2021/03/29 06:12:09;;;;;;;13.67;5.90;;;;;;;4.93;100.00;97764.72;5000293;28;20714;-72
2021/03/29 06:14:35;;;;;;;14.70;5.80;;;;;;;5.03;100.00;97771.81;5003978;28;20233;-72
2021/03/29 06:17:04;;;;;;;20.60;5.77;;;;;;;5.13;100.00;97774.63;5004332;28;20664;-72
2021/03/29 06:19:49;;;;;;;15.90;6.13;;;;;;;5.26;100.00;97776.28;5007583;28;20206;-72
2021/03/29 06:22:21;;;;;;;14.47;6.70;;;;;;;5.40;99.69;97777.91;4999877;28;20758;-72
2021/03/29 06:24:55;;;;;;;15.17;6.33;;;;;;;5.51;98.16;97776.19;5001200;28;20638;-72
2021/03/29 06:27:23;;;;;;;15.37;5.47;;;;;;;5.55;97.98;97775.06;5006761;28;20737;-72
2021/03/29 06:29:50;;;;;;;13.73;6.07;;;;;;;5.53;100.00;97774.31;5001623;28;20259;-73
2021/03/29 06:32:17;;;;;;;14.93;6.70;;;;;;;5.67;100.00;97771.56;5006554;28;20240;-73
2021/03/29 06:34:43;;;;;;;13.57;6.33;;;;;;;5.74;99.43;97775.38;5001416;28;20702;-73
2021/03/29 06:37:10;;;;;;;14.00;6.63;;;;;;;5.85;97.96;97770.25;5006653;28;20623;-73
2021/03/29 06:39:37;;;;;;;14.73;5.53;;;;;;;6.04;94.87;97778.44;5000528;28;20213;-72
2021/03/29 06:42:05;;;;;;;11.97;5.30;;;;;;;6.21;92.35;97781.47;5008725;28;20305;-73
2021/03/29 06:44:32;;;;;;;14.13;5.73;;;;;;;6.65;94.78;97771.97;5003758;28;20677;-71
2021/03/29 06:47:10;;;;;;;11.80;6.07;;;;;;;6.80;89.51;97769.03;5003138;28;20672;-71
2021/03/29 06:49:41;;;;;;;14.45;6.55;;;;;;;7.14;85.96;97773.34;5004660;28;20848;-73
2021/03/29 06:52:25;;;;;;;15.67;6.03;;;;;;;7.24;86.02;97779.53;5003945;28;20202;-73
2021/03/29 06:54:52;;;;;;;14.03;5.20;;;;;;;7.26;84.61;97783.69;5004392;28;20230;-73
2021/03/29 06:57:28;;;;;;;9.23;5.00;;;;;;;7.30;83.86;97782.50;5006027;28;20202;-73
2021/03/29 06:59:55;;;;;;;15.47;5.13;;;;;;;7.43;82.94;97785.84;5004348;28;20207;-73
2021/03/29 07:02:36;;;;;;;8.27;4.77;;;;;;;7.52;82.90;97790.38;5005600;28;20238;-72
2021/03/29 07:05:03;;;;;;;9.00;4.83;;;;;;;7.63;83.34;97781.66;5006755;28;20226;-73
2021/03/29 07:07:31;;;;;;;11.27;4.53;;;;;;;7.77;81.71;97789.25;5002679;28;20309;-72
2021/03/29 07:10:00;;;;;;;15.17;5.00;;;;;;;7.93;81.63;97803.66;5005412;28;20939;-72
2021/03/29 07:12:27;;;;;;;16.40;5.13;;;;;;;8.11;79.74;97794.31;5008117;28;20205;-73
2021/03/29 07:14:55;;;;;;;6.93;4.67;;;;;;;8.31;79.26;97806.66;5006248;28;20241;-72
2021/03/29 07:17:23;;;;;;;11.23;5.20;;;;;;;8.38;80.00;97803.41;5007430;28;20256;-73
2021/03/29 07:19:50;;;;;;;8.97;4.57;;;;;;;8.61;78.82;97800.53;5007158;28;20245;-72
2021/03/29 07:22:18;;;;;;;12.90;4.97;;;;;;;8.71;79.20;97819.84;5007988;28;20207;-73
2021/03/29 07:24:46;;;;;;;10.00;4.97;;;;;;;8.81;78.97;97817.31;5010101;28;20229;-73
2021/03/29 07:27:14;;;;;;;7.83;4.10;;;;;;;9.03;77.73;97807.47;5004954;28;20210;-73
2021/03/29 07:29:47;;;;;;;9.17;4.47;;;;;;;9.34;76.20;97796.00;5010184;28;20202;-73
2021/03/29 07:32:30;;;;;;;9.80;4.70;;;;;;;9.47;76.19;97797.44;5009284;28;20585;-72
2021/03/29 07:34:57;;;;;;;8.53;4.20;;;;;;;9.55;77.04;97802.88;5006680;28;20230;-72
2021/03/29 07:37:29;;;;;;;8.47;4.70;;;;;;;9.89;76.57;97805.06;5008133;28;20207;-71
2021/03/29 07:39:56;;;;;;;9.70;4.57;;;;;;;10.07;76.43;97808.72;5006355;28;20213;-71
2021/03/29 07:42:37;;;;;;;11.33;4.60;;;;;;;10.40;75.63;97801.28;5000031;28;20214;-71
2021/03/29 07:45:11;;;;;;;9.23;4.30;;;;;;;10.61;75.06;97806.41;5000794;28;20243;-71
2021/03/29 07:47:57;;;;;;;7.13;4.50;;;;;;;10.91;73.31;97814.16;5006387;28;20202;-71
2021/03/29 07:50:45;;;;;;;8.40;4.50;;;;;;;11.33;71.02;97801.28;5007739;28;20280;-71
2021/03/29 07:53:17;;;;;;;7.87;4.47;;;;;;;11.52;69.59;97808.31;5007794;28;20974;-71
2021/03/29 07:55:45;;;;;;;9.17;4.07;;;;;;;11.46;68.12;97807.06;5006215;28;20576;-72
2021/03/29 07:58:13;;;;;;;6.77;3.87;;;;;;;11.11;68.42;97804.28;5006526;28;20679;-73
2021/03/29 08:00:48;;;;;;;7.23;4.40;;;;;;;11.10;69.65;97802.59;5005020;28;20306;-72
2021/03/29 08:03:46;;;;;;;8.40;4.40;;;;;;;10.99;70.67;97802.75;5005989;28;20229;-73
2021/03/29 08:06:39;;;;;;;15.20;4.87;;;;;;;11.20;70.15;97802.56;5005857;28;20202;-74
2021/03/29 08:09:10;;;;;;;11.95;4.55;;;;;;;11.46;69.26;97800.97;5008119;28;20629;-72
2021/03/29 08:11:58;;;;;;;7.80;4.43;;;;;;;11.86;69.78;97810.25;5005009;28;20213;-72
2021/03/29 08:14:37;;;;;;;10.05;4.97;;;;;;;11.95;67.76;97807.59;5006956;28;20231;-72
2021/03/29 08:20:35;;;;;;;9.57;4.70;;;;;;;12.07;67.86;97809.03;5006829;28;20715;-73
2021/03/29 08:23:33;;;;;;;7.60;4.57;;;;;;;12.03;66.33;97812.09;5008123;28;20234;-72
2021/03/29 08:26:14;;;;;;;8.25;4.60;;;;;;;11.98;66.41;97815.19;5007392;28;20543;-73
2021/03/29 08:29:27;;;;;;;10.93;4.60;;;;;;;12.01;66.10;97819.38;5005186;28;20202;-73
2021/03/29 08:32:09;;;;;;;7.05;4.07;;;;;;;12.01;66.57;97817.53;5003037;28;21017;-73
2021/03/29 08:34:41;;;;;;;5.80;3.77;;;;;;;11.95;66.33;97822.59;5004911;28;21025;-73
2021/03/29 08:37:08;;;;;;;10.52;4.18;;;;;;;11.86;66.51;97818.19;5009012;28;20914;-73
2021/03/29 08:39:38;;;;;;;8.52;3.83;;;;;;;11.80;65.50;97822.25;5004721;28;20553;-73
2021/03/29 08:42:06;;;;;;;8.13;3.75;;;;;;;11.89;64.80;97825.81;5005159;28;20214;-73
2021/03/29 08:44:36;;;;;;;6.78;4.13;;;;;;;11.98;65.20;97832.88;5007574;28;20240;-73
2021/03/29 08:47:08;;;;;;;8.38;4.13;;;;;;;12.10;63.47;97824.56;5001435;28;20285;-72
2021/03/29 08:49:34;;;;;;;7.60;3.90;;;;;;;12.13;63.83;97831.38;5002543;28;20786;-73
2021/03/29 08:52:00;;;;;;;8.35;3.63;;;;;;;12.28;63.20;97826.28;5011244;28;20209;-73
2021/03/29 08:54:26;;;;;;;7.82;3.47;;;;;;;12.46;62.64;97834.22;5005645;28;20226;-73
2021/03/29 08:57:01;;;;;;;8.45;4.20;;;;;;;12.55;62.35;97833.31;5007566;28;20206;-73
2021/03/29 08:59:28;;;;;;;9.68;4.15;;;;;;;12.70;61.55;97827.34;5005422;28;20215;-73
2021/03/29 09:01:54;;;;;;;8.98;4.25;;;;;;;12.58;61.78;97831.22;5004419;28;20277;-73
2021/03/29 09:04:21;;;;;;;8.63;4.40;;;;;;;12.49;62.78;97834.75;5005646;28;20245;-73
2021/03/29 09:06:53;;;;;;;8.03;3.87;;;;;;;12.45;61.84;97833.41;5007734;28;20206;-72
2021/03/29 09:09:21;;;;;;;6.97;4.07;;;;;;;12.59;61.60;97829.38;5005439;28;20205;-73
2021/03/29 09:11:49;;;;;;;9.25;3.83;;;;;;;12.69;62.65;97825.72;5004255;28;20253;-73
2021/03/29 09:14:19;;;;;;;7.18;3.78;;;;;;;12.68;61.22;97834.63;5004442;28;20219;-73
2021/03/29 09:16:46;;;;;;;10.00;4.00;;;;;;;12.59;60.92;97830.25;5002775;28;20264;-73
2021/03/29 09:19:17;;;;;;;10.25;4.07;;;;;;;12.46;61.34;97842.16;5004342;28;20676;-73
2021/03/29 09:21:52;;;;;;;11.32;4.07;;;;;;;12.54;60.79;97843.06;5003032;28;20273;-73
2021/03/29 09:24:21;;;;;;;9.00;3.90;;;;;;;12.62;60.68;97840.50;5004802;28;21018;-73
2021/03/29 09:26:58;;;;;;;9.07;4.05;;;;;;;12.80;60.87;97833.41;5006696;28;20205;-73
2021/03/29 09:29:34;;;;;;;7.40;3.93;;;;;;;12.96;60.51;97844.16;5004850;28;20584;-73
2021/03/29 09:32:03;;;;;;;10.27;4.15;;;;;;;13.44;59.80;97830.28;5003980;28;20268;-73
2021/03/29 09:34:30;;;;;;;5.55;3.50;;;;;;;13.75;55.42;97836.75;5007040;28;20233;-73
2021/03/29 09:36:57;;;;;;;7.22;3.35;;;;;;;13.99;55.14;97835.03;5007086;28;20671;-73
2021/03/29 09:39:28;;;;;;;7.68;3.30;;;;;;;13.96;53.07;97834.53;5006166;28;20420;-73
2021/03/29 09:41:54;;;;;;;6.00;2.95;;;;;;;14.04;53.63;97837.22;5006673;28;20214;-73
2021/03/29 09:44:28;;;;;;;9.45;3.47;;;;;;;14.10;54.05;97833.97;5005485;28;20233;-73
2021/03/29 09:46:55;;;;;;;8.93;3.30;;;;;;;14.12;53.17;97838.09;5003189;28;20301;-73
2021/03/29 09:49:22;;;;;;;8.98;3.70;;;;;;;14.22;54.20;97845.94;5011535;28;20209;-73
2021/03/29 09:51:51;;;;;;;7.68;3.28;;;;;;;14.33;52.19;97843.84;5008436;28;20243;-73
2021/03/29 09:54:26;;;;;;;7.07;3.15;;;;;;;14.61;52.42;97850.50;5005465;28;21026;-73
2021/03/29 09:56:54;;;;;;;7.25;3.17;;;;;;;14.76;51.91;97840.94;5003214;28;20206;-72
2021/03/29 09:59:30;;;;;;;13.00;3.10;;;;;;;14.84;49.93;97841.78;5000040;28;20214;-73
2021/03/29 10:01:58;;;;;;;4.47;2.45;;;;;;;14.91;47.17;97837.47;5006847;28;20209;-73
2021/03/29 10:04:24;;;;;;;8.23;2.45;;;;;;;15.10;47.55;97841.63;4998798;28;20265;-73
2021/03/29 10:06:51;;;;;;;4.07;2.20;;;;;;;15.30;45.60;97830.53;5006766;28;20205;-73
2021/03/29 10:09:30;;;;;;;4.78;2.20;;;;;;;15.46;46.11;97823.34;5006312;28;20306;-73
2021/03/29 10:11:56;;;;;;;6.72;2.20;;;;;;;15.45;44.58;97829.69;5003674;28;20555;-73
2021/03/29 10:14:31;;;;;;;5.20;2.03;;;;;;;15.60;41.75;97827.16;5005192;28;20218;-73
2021/03/29 10:16:57;;;;;;;6.07;1.80;;;;;;;15.71;43.03;97821.50;5006859;28;20670;-73
2021/03/29 10:19:31;;;;;;;3.47;1.58;;;;;;;15.63;38.98;97824.13;5005032;28;20765;-73
2021/03/29 10:22:08;;;;;;;4.35;1.48;;;;;;;15.74;38.81;97821.13;5009965;28;20221;-73
2021/03/29 10:24:37;;;;;;;4.32;1.52;;;;;;;15.61;37.39;97815.53;4994350;28;20249;-73
2021/03/29 10:27:05;;;;;;;4.40;2.33;;;;;;;15.68;40.76;97813.84;5005080;28;20210;-73
2021/03/29 10:29:37;;;;;;;3.38;2.20;;;;;;;15.63;40.97;97818.81;5006744;28;20252;-73
2021/03/29 10:32:09;;;;;;;4.60;2.35;;;;;;;15.57;41.90;97808.91;5002962;28;20245;-73
2021/03/29 10:34:38;;;;;;;6.45;2.55;;;;;;;15.83;40.95;97812.13;5002792;28;20218;-72
2021/03/29 10:37:17;;;;;;;7.10;2.03;;;;;;;16.01;40.21;97805.56;5001472;28;20222;-73
2021/03/29 10:39:44;;;;;;;7.05;2.50;;;;;;;16.08;39.31;97803.91;5003064;28;20206;-73
2021/03/29 10:42:11;;;;;;;4.57;2.20;;;;;;;16.00;39.07;97806.59;5008469;28;20985;-73
2021/03/29 10:44:37;;;;;;;5.50;2.28;;;;;;;15.93;40.15;97805.63;5001676;28;21143;-73
2021/03/29 10:47:04;;;;;;;6.30;2.80;;;;;;;15.96;40.15;97799.94;5006363;28;20206;-73
2021/03/29 10:49:30;;;;;;;6.97;2.67;;;;;;;16.06;40.62;97804.06;5007052;28;20210;-73
2021/03/29 10:51:56;;;;;;;5.82;2.45;;;;;;;16.02;40.38;97804.56;5004200;28;20268;-73
2021/03/29 10:54:22;;;;;;;4.90;2.63;;;;;;;16.31;39.16;97804.81;5007714;28;20638;-73
2021/03/29 10:56:49;;;;;;;5.40;2.10;;;;;;;16.50;38.11;97799.88;5009034;28;20214;-73
2021/03/29 10:59:15;;;;;;;4.68;2.17;;;;;;;16.28;34.94;97803.31;5008983;28;20206;-73
2021/03/29 11:01:41;;;;;;;4.78;2.22;;;;;;;16.33;36.60;97800.13;5010946;28;20205;-73
2021/03/29 11:04:07;;;;;;;7.32;2.50;;;;;;;16.52;36.70;97793.38;5009420;28;20718;-73
2021/03/29 11:06:34;;;;;;;4.68;2.60;;;;;;;16.84;37.59;97794.97;5005784;28;20217;-73
2021/03/29 11:09:00;;;;;;;5.90;2.05;;;;;;;16.84;36.21;97802.94;5006667;28;20211;-73
2021/03/29 11:11:27;;;;;;;3.25;1.88;;;;;;;16.87;36.73;97791.97;5006603;28;20206;-73
2021/03/29 11:13:53;;;;;;;6.97;2.95;;;;;;;17.20;35.76;97788.84;5005869;28;20233;-73
2021/03/29 11:16:21;;;;;;;7.43;2.60;;;;;;;17.18;34.61;97786.38;5005819;28;20213;-73
2021/03/29 11:18:47;;;;;;;6.35;2.53;;;;;;;17.17;35.74;97790.03;5006797;28;20325;-73
2021/03/29 11:21:13;;;;;;;5.90;2.03;;;;;;;16.96;33.36;97780.25;5006201;28;20202;-73
2021/03/29 11:23:39;;;;;;;4.50;2.17;;;;;;;16.93;33.64;97791.22;5005852;28;20234;-73
2021/03/29 11:26:05;;;;;;;5.22;2.10;;;;;;;17.05;34.51;97781.81;5003077;28;20202;-73
2021/03/29 11:28:31;;;;;;;4.63;2.20;;;;;;;17.16;33.40;97780.38;5005912;28;20217;-73
2021/03/29 11:30:58;;;;;;;5.82;1.75;;;;;;;17.16;33.24;97777.72;5006439;28;20643;-73
2021/03/29 11:33:24;;;;;;;3.97;1.70;;;;;;;17.13;31.42;97785.22;5008978;28;20227;-72
2021/03/29 11:35:50;;;;;;;3.00;1.77;;;;;;;17.34;32.06;97785.41;5006012;28;20216;-73
2021/03/29 11:38:16;;;;;;;5.88;1.80;;;;;;;17.65;32.96;97783.41;5008051;28;20627;-73
2021/03/29 11:40:42;;;;;;;6.88;2.05;;;;;;;17.37;32.29;97785.84;5005331;28;20211;-72
2021/03/29 11:43:08;;;;;;;5.10;2.30;;;;;;;17.42;34.37;97783.47;5004577;28;20234;-73
2021/03/29 11:45:35;;;;;;;4.53;2.40;;;;;;;17.59;33.66;97787.66;5008400;28;20634;-73